createdAt,value
2018-07-22T00:00:41.814Z,6.50
2018-07-22T00:03:10.346Z,6.70
2018-07-22T00:05:38.875Z,7.57
2018-07-22T00:08:07.522Z,7.40
2018-07-22T00:10:35.699Z,6.67
2018-07-22T00:13:04.331Z,7.37
2018-07-22T00:15:32.824Z,6.20
2018-07-22T00:18:01.628Z,8.60
2018-07-22T00:20:30.359Z,7.60
2018-07-22T00:22:58.891Z,9.10
2018-07-22T00:25:27.520Z,8.80
2018-07-22T00:27:56.092Z,8.10
2018-07-22T00:30:24.731Z,7.43
2018-07-22T00:32:53.322Z,8.17
2018-07-22T00:35:21.865Z,8.03
2018-07-22T00:37:50.490Z,8.40
2018-07-22T00:40:18.996Z,8.80
2018-07-22T00:42:47.590Z,8.40
2018-07-22T00:45:16.236Z,8.03
2018-07-22T00:47:44.771Z,8.27
2018-07-22T00:50:13.475Z,8.60
2018-07-22T00:52:42.018Z,9.30
2018-07-22T00:55:10.602Z,8.33
2018-07-22T00:57:39.074Z,7.57
2018-07-22T01:00:08.251Z,7.87
2018-07-22T01:02:36.750Z,6.60
2018-07-22T01:05:05.770Z,9.20
2018-07-22T01:07:34.278Z,7.00
2018-07-22T01:10:02.985Z,8.13
2018-07-22T01:12:31.607Z,6.17
2018-07-22T01:15:00.104Z,6.40
2018-07-22T01:17:28.639Z,6.90
2018-07-22T01:19:57.131Z,6.53
2018-07-22T01:22:25.663Z,7.37
2018-07-22T01:24:54.179Z,8.17
2018-07-22T01:27:22.684Z,6.80
2018-07-22T01:29:51.348Z,5.97
2018-07-22T01:32:19.874Z,7.67
2018-07-22T01:34:48.390Z,8.07
2018-07-22T01:37:16.964Z,8.53
2018-07-22T01:39:45.431Z,6.43
2018-07-22T01:42:13.955Z,7.80
2018-07-22T01:44:42.499Z,7.77
2018-07-22T01:47:11.052Z,6.70
2018-07-22T01:49:39.558Z,8.67
2018-07-22T01:52:08.163Z,6.83
2018-07-22T01:54:36.698Z,7.23
2018-07-22T01:57:05.310Z,5.70
2018-07-22T01:59:33.836Z,6.20
2018-07-22T02:02:02.396Z,6.60
2018-07-22T02:04:30.897Z,6.83
2018-07-22T02:06:59.406Z,7.30
2018-07-22T02:09:27.910Z,8.10
2018-07-22T02:11:56.457Z,7.67
2018-07-22T02:14:25.088Z,5.93
2018-07-22T02:16:53.583Z,6.50
2018-07-22T02:19:22.083Z,5.80
2018-07-22T02:21:50.751Z,7.53
2018-07-22T02:24:19.244Z,6.93
2018-07-22T02:26:47.822Z,6.67
2018-07-22T02:29:16.024Z,5.60
2018-07-22T02:31:44.613Z,8.00
2018-07-22T02:34:13.099Z,6.57
2018-07-22T02:36:41.613Z,7.87
2018-07-22T02:39:11.978Z,7.60
2018-07-22T02:41:40.530Z,6.28
2018-07-22T02:44:09.530Z,6.70
2018-07-22T02:46:38.408Z,5.63
2018-07-22T02:49:07.011Z,5.40
2018-07-22T02:51:35.881Z,6.90
2018-07-22T02:54:04.396Z,7.83
2018-07-22T02:56:33.154Z,4.87
2018-07-22T02:59:05.691Z,6.40
2018-07-22T03:01:36.284Z,5.57
2018-07-22T03:04:05.392Z,6.03
2018-07-22T03:06:34.397Z,5.30
2018-07-22T03:09:03.396Z,8.57
2018-07-22T03:11:31.863Z,7.23
2018-07-22T03:14:00.476Z,7.83
2018-07-22T03:16:28.968Z,8.50
2018-07-22T03:18:57.480Z,8.70
2018-07-22T03:21:26.047Z,6.47
2018-07-22T03:23:54.733Z,8.27
2018-07-22T03:26:23.246Z,8.50
2018-07-22T03:28:51.748Z,8.40
2018-07-22T03:31:20.310Z,9.40
2018-07-22T03:33:48.811Z,8.40
2018-07-22T03:36:17.323Z,8.40
2018-07-22T03:38:45.836Z,8.80
2018-07-22T03:41:14.383Z,6.23
2018-07-22T03:43:42.971Z,6.40
2018-07-22T03:46:11.491Z,7.90
2018-07-22T03:48:39.955Z,6.13
2018-07-22T03:51:08.433Z,7.80
2018-07-22T03:53:36.917Z,7.67
2018-07-22T03:56:05.607Z,9.73
2018-07-22T03:58:34.111Z,8.03
2018-07-22T04:01:02.656Z,9.27
2018-07-22T04:03:31.231Z,7.17
2018-07-22T04:05:59.952Z,9.30
2018-07-22T04:08:28.114Z,8.97
2018-07-22T04:10:56.671Z,9.30
2018-07-22T04:13:25.208Z,8.63
2018-07-22T04:15:53.744Z,7.80
2018-07-22T04:18:22.338Z,9.20
2018-07-22T04:20:50.809Z,8.77
2018-07-22T04:23:19.389Z,8.27
2018-07-22T04:25:47.956Z,8.63
2018-07-22T04:28:16.479Z,8.80
2018-07-22T04:30:44.972Z,8.53
2018-07-22T04:33:13.496Z,8.50
2018-07-22T04:35:41.994Z,8.87
2018-07-22T04:38:10.593Z,7.23
2018-07-22T04:40:39.131Z,6.17
2018-07-22T04:43:07.674Z,6.70
2018-07-22T04:45:36.205Z,6.60
2018-07-22T04:48:04.712Z,7.33
2018-07-22T04:50:33.188Z,7.50
2018-07-22T04:53:01.795Z,7.40
2018-07-22T04:55:30.352Z,6.20
2018-07-22T04:57:58.875Z,5.90
2018-07-22T05:00:27.387Z,6.40
2018-07-22T05:02:56.036Z,6.30
2018-07-22T05:05:24.608Z,9.60
2018-07-22T05:07:53.067Z,6.37
2018-07-22T05:10:21.635Z,9.03
2018-07-22T05:12:50.259Z,8.90
2018-07-22T05:15:18.924Z,8.27
2018-07-22T05:17:47.044Z,8.13
2018-07-22T05:20:15.530Z,6.23
2018-07-22T05:22:44.064Z,6.77
2018-07-22T05:25:12.557Z,6.50
2018-07-22T05:27:41.108Z,6.20
2018-07-22T05:30:09.880Z,6.77
2018-07-22T05:32:38.493Z,6.30
2018-07-22T05:35:07.019Z,8.57
2018-07-22T05:37:35.660Z,6.40
2018-07-22T05:40:04.660Z,7.83
2018-07-22T05:42:33.180Z,8.90
2018-07-22T05:45:01.704Z,6.73
2018-07-22T05:47:30.195Z,5.53
2018-07-22T05:49:58.731Z,6.00
2018-07-22T05:52:27.307Z,8.40
2018-07-22T05:54:55.877Z,6.67
2018-07-22T05:57:24.522Z,6.87
2018-07-22T05:59:53.075Z,8.30
2018-07-22T06:02:21.623Z,7.43
2018-07-22T06:04:50.129Z,7.00
2018-07-22T06:07:18.774Z,6.23
2018-07-22T06:09:47.556Z,6.10
2018-07-22T06:12:16.100Z,6.67
2018-07-22T06:14:44.669Z,6.50
2018-07-22T06:17:13.311Z,6.70
2018-07-22T06:19:41.859Z,6.30
2018-07-22T06:22:10.371Z,5.80
2018-07-22T06:24:38.858Z,6.73
2018-07-22T06:27:07.955Z,7.23
2018-07-22T06:29:36.508Z,5.70
2018-07-22T06:32:05.268Z,8.20
2018-07-22T06:34:33.864Z,6.20
2018-07-22T06:37:02.749Z,5.90
2018-07-22T06:39:31.353Z,6.77
2018-07-22T06:41:59.909Z,6.50
2018-07-22T06:44:28.445Z,7.70
2018-07-22T06:46:57.188Z,7.28
2018-07-22T06:49:25.775Z,7.10
2018-07-22T06:51:54.329Z,7.97
2018-07-22T06:54:22.902Z,7.55
2018-07-22T06:56:51.412Z,7.55
2018-07-22T06:59:19.975Z,7.35
2018-07-22T07:01:48.923Z,7.00
2018-07-22T07:04:17.520Z,6.95
2018-07-22T07:06:46.063Z,8.05
2018-07-22T07:09:14.590Z,8.30
2018-07-22T07:11:43.179Z,7.20
2018-07-22T07:14:12.084Z,7.95
2018-07-22T07:16:40.679Z,7.60
2018-07-22T07:19:09.312Z,8.10
2018-07-22T07:21:37.874Z,8.25
2018-07-22T07:24:06.420Z,9.35
2018-07-22T07:26:34.987Z,9.03
2018-07-22T07:29:03.639Z,10.40
2018-07-22T07:31:32.192Z,8.78
2018-07-22T07:34:00.808Z,7.60
2018-07-22T07:36:29.575Z,9.30
2018-07-22T07:38:58.185Z,10.00
2018-07-22T07:41:26.743Z,8.53
2018-07-22T07:43:55.337Z,8.00
2018-07-22T07:46:24.133Z,7.75
2018-07-22T07:48:52.813Z,9.48
2018-07-22T07:51:21.309Z,9.60
2018-07-22T07:53:50.116Z,8.20
2018-07-22T07:56:18.861Z,11.12
2018-07-22T07:58:47.490Z,10.65
2018-07-22T08:01:16.108Z,10.20
2018-07-22T08:03:44.856Z,9.25
2018-07-22T08:06:13.524Z,10.70
2018-07-22T08:08:42.060Z,11.00
2018-07-22T08:11:11.531Z,7.95
2018-07-22T08:13:40.097Z,8.80
2018-07-22T08:16:08.896Z,9.55
2018-07-22T08:18:37.598Z,11.38
2018-07-22T08:21:06.407Z,12.30
2018-07-22T08:23:34.966Z,11.40
2018-07-22T08:26:03.658Z,9.50
2018-07-22T08:28:43.568Z,11.30
2018-07-22T08:31:12.183Z,9.27
2018-07-22T08:33:40.680Z,10.30
2018-07-22T08:36:09.271Z,12.60
2018-07-22T08:38:38.021Z,12.07
2018-07-22T08:41:06.671Z,11.70
2018-07-22T08:43:35.291Z,12.20
2018-07-22T08:46:03.968Z,11.75
2018-07-22T08:48:32.568Z,11.80
2018-07-22T08:51:01.280Z,10.80
2018-07-22T08:53:29.493Z,11.83
2018-07-22T08:55:58.237Z,13.27
2018-07-22T08:58:26.892Z,11.55
2018-07-22T09:00:55.636Z,11.43
2018-07-22T09:03:24.484Z,11.08
2018-07-22T09:05:53.265Z,11.30
2018-07-22T09:08:21.986Z,11.70
2018-07-22T09:10:50.517Z,10.82
2018-07-22T09:13:19.282Z,11.45
2018-07-22T09:15:48.169Z,11.77
2018-07-22T09:18:16.804Z,11.18
2018-07-22T09:20:45.527Z,10.95
2018-07-22T09:23:14.377Z,12.58
2018-07-22T09:25:43.104Z,12.50
2018-07-22T09:28:12.047Z,11.60
2018-07-22T09:30:40.776Z,11.38
2018-07-22T09:33:09.515Z,11.35
2018-07-22T09:35:37.854Z,10.80
2018-07-22T09:38:06.533Z,10.18
2018-07-22T09:40:35.240Z,10.90
2018-07-22T09:43:04.000Z,9.53
2018-07-22T09:45:32.598Z,10.70
2018-07-22T09:48:01.287Z,10.70
2018-07-22T09:50:29.948Z,9.83
2018-07-22T09:52:58.806Z,10.60
2018-07-22T09:55:27.539Z,11.65
2018-07-22T09:57:56.296Z,10.50
2018-07-22T10:00:30.374Z,10.53
2018-07-22T10:03:01.904Z,10.48
2018-07-22T10:05:30.540Z,9.58
2018-07-22T10:07:59.267Z,9.90
2018-07-22T10:10:28.147Z,10.20
2018-07-22T10:12:56.748Z,10.05
2018-07-22T10:15:25.549Z,11.12
2018-07-22T10:17:54.267Z,10.30
2018-07-22T10:20:22.816Z,9.80
2018-07-22T10:22:51.567Z,10.03
2018-07-22T10:25:20.140Z,11.15
2018-07-22T10:27:48.881Z,9.98
2018-07-22T10:30:17.449Z,10.40
2018-07-22T10:32:46.791Z,11.20
2018-07-22T10:35:15.639Z,10.40
2018-07-22T10:37:45.076Z,9.85
2018-07-22T10:40:14.561Z,9.85
2018-07-22T10:42:44.401Z,10.13
2018-07-22T10:45:13.047Z,9.70
2018-07-22T10:47:42.100Z,10.55
2018-07-22T10:50:10.979Z,9.85
2018-07-22T10:52:39.576Z,10.23
2018-07-22T10:55:08.396Z,10.00
2018-07-22T10:57:37.196Z,10.78
2018-07-22T11:00:06.837Z,9.97
2018-07-22T11:02:35.596Z,10.90
2018-07-22T11:05:05.124Z,10.05
2018-07-22T11:07:33.773Z,9.70
2018-07-22T11:10:02.692Z,9.53
2018-07-22T11:12:31.256Z,10.23
2018-07-22T11:14:59.877Z,9.80
2018-07-22T11:17:28.627Z,9.90
2018-07-22T11:19:57.261Z,9.78
2018-07-22T11:22:26.457Z,10.63
2018-07-22T11:24:55.234Z,9.13
2018-07-22T11:27:24.005Z,10.53
2018-07-22T11:29:52.667Z,9.93
2018-07-22T11:32:21.554Z,10.10
2018-07-22T11:34:50.299Z,10.30
2018-07-22T11:37:19.279Z,10.48
2018-07-22T11:39:48.045Z,10.35
2018-07-22T11:42:16.874Z,10.88
2018-07-22T11:44:45.732Z,10.60
2018-07-22T11:47:14.401Z,10.50
2018-07-22T11:49:44.466Z,11.05
2018-07-22T11:52:13.743Z,11.28
2018-07-22T11:54:42.560Z,12.30
2018-07-22T11:57:11.822Z,9.88
2018-07-22T11:59:41.098Z,10.05
2018-07-22T12:02:10.085Z,10.00
2018-07-22T12:04:38.457Z,10.37
2018-07-22T12:07:07.152Z,10.72
2018-07-22T12:09:35.968Z,11.20
2018-07-22T12:12:05.842Z,11.08
2018-07-22T12:14:34.612Z,10.38
2018-07-22T12:17:03.216Z,11.50
2018-07-22T12:19:31.914Z,10.65
2018-07-22T12:22:00.596Z,9.30
2018-07-22T12:24:29.412Z,10.13
2018-07-22T12:26:58.282Z,9.53
2018-07-22T12:29:26.912Z,9.78
2018-07-22T12:31:55.696Z,9.98
2018-07-22T12:34:24.557Z,12.00
2018-07-22T12:36:53.339Z,10.50
2018-07-22T12:39:21.922Z,12.05
2018-07-22T12:41:50.599Z,11.60
2018-07-22T12:44:20.579Z,11.12
2018-07-22T12:46:49.485Z,11.70
2018-07-22T12:49:17.819Z,12.60
2018-07-22T12:51:46.592Z,11.50
2018-07-22T12:54:15.431Z,11.28
2018-07-22T12:56:44.061Z,11.50
2018-07-22T12:59:13.203Z,11.78
2018-07-22T13:01:42.048Z,11.60
2018-07-22T13:04:10.960Z,11.40
2018-07-22T13:06:39.959Z,11.93
2018-07-22T13:09:10.801Z,10.50
2018-07-22T13:11:40.337Z,11.28
2018-07-22T13:14:09.433Z,12.20
2018-07-22T13:16:38.488Z,11.95
2018-07-22T13:19:08.346Z,11.73
2018-07-22T13:21:37.057Z,11.60
2018-07-22T13:24:05.801Z,11.73
2018-07-22T13:26:34.490Z,11.93
2018-07-22T13:29:03.172Z,12.43
2018-07-22T13:31:31.637Z,12.70
2018-07-22T13:34:00.433Z,14.90
2018-07-22T13:36:29.199Z,13.65
2018-07-22T13:38:57.865Z,11.53
2018-07-22T13:41:26.600Z,11.90
2018-07-22T13:43:55.241Z,12.65
2018-07-22T13:46:23.897Z,11.07
2018-07-22T13:48:52.580Z,11.20
2018-07-22T13:51:21.340Z,10.78
2018-07-22T13:53:50.121Z,10.35
2018-07-22T13:56:19.021Z,8.53
2018-07-22T13:58:47.759Z,8.35
2018-07-22T14:01:16.602Z,9.10
2018-07-22T14:03:45.599Z,7.42
2018-07-22T14:06:14.363Z,8.05
2018-07-22T14:08:43.022Z,8.20
2018-07-22T14:11:11.835Z,8.40
2018-07-22T14:13:40.583Z,8.20
2018-07-22T14:16:09.535Z,9.00
2018-07-22T14:18:38.187Z,7.83
2018-07-22T14:21:06.990Z,10.20
2018-07-22T14:23:35.659Z,9.30
2018-07-22T14:26:04.429Z,9.65
2018-07-22T14:28:32.953Z,9.35
2018-07-22T14:31:01.713Z,8.80
2018-07-22T14:33:30.419Z,9.20
2018-07-22T14:35:59.230Z,10.28
2018-07-22T14:38:28.056Z,13.70
2018-07-22T14:40:57.005Z,19.05
2018-07-22T14:43:25.476Z,20.70
2018-07-22T14:45:54.070Z,13.25
2018-07-22T14:48:22.775Z,11.00
2018-07-22T14:50:51.463Z,17.05
2018-07-22T14:55:49.344Z,33.45
2018-07-22T14:58:18.200Z,82.50
2018-07-22T15:00:46.953Z,45.10
2018-07-22T15:03:15.684Z,111.28
2018-07-22T15:05:44.319Z,28.80
2018-07-22T15:08:12.943Z,17.02
2018-07-22T15:10:41.722Z,15.23
2018-07-22T15:13:10.343Z,16.65
2018-07-22T15:15:39.159Z,16.85
2018-07-22T15:18:08.202Z,15.80
2018-07-22T15:20:36.923Z,15.60
2018-07-22T15:23:05.711Z,14.50
2018-07-22T15:25:34.724Z,14.10
2018-07-22T15:28:03.550Z,15.20
2018-07-22T15:30:32.399Z,13.50
2018-07-22T15:33:01.310Z,15.15
2018-07-22T15:35:30.093Z,13.75
2018-07-22T15:37:58.994Z,13.72
2018-07-22T15:40:27.652Z,16.05
2018-07-22T15:42:56.465Z,17.90
2018-07-22T15:45:25.413Z,17.55
2018-07-22T15:47:54.196Z,17.98
2018-07-22T15:50:23.038Z,23.90
2018-07-22T15:52:51.676Z,27.23
2018-07-22T15:55:20.759Z,20.10
2018-07-22T15:57:49.365Z,20.48
2018-07-22T16:00:18.204Z,16.80
2018-07-22T16:02:46.983Z,18.07
2018-07-22T16:05:15.844Z,20.10
2018-07-22T16:07:44.796Z,17.23
2018-07-22T16:10:13.509Z,24.10
2018-07-22T16:12:42.316Z,26.43
2018-07-22T16:15:10.935Z,34.33
2018-07-22T16:17:39.593Z,40.40
2018-07-22T16:20:08.494Z,28.50
2018-07-22T16:22:37.069Z,26.70
2018-07-22T16:25:06.204Z,25.45
2018-07-22T16:27:35.014Z,24.67
2018-07-22T16:30:03.878Z,26.17
2018-07-22T16:32:32.524Z,18.87
2018-07-22T16:35:01.367Z,16.27
2018-07-22T16:37:30.223Z,16.40
2018-07-22T16:39:58.936Z,17.57
2018-07-22T16:42:27.842Z,17.40
2018-07-22T16:44:56.591Z,16.47
2018-07-22T16:47:25.335Z,15.13
2018-07-22T16:49:53.923Z,14.03
2018-07-22T16:52:22.479Z,18.27
2018-07-22T16:54:51.343Z,21.63
2018-07-22T16:57:20.375Z,21.50
2018-07-22T16:59:49.251Z,15.80
2018-07-22T17:02:18.017Z,18.57
2018-07-22T17:04:46.692Z,14.50
2018-07-22T17:07:15.462Z,15.17
2018-07-22T17:09:44.266Z,15.10
2018-07-22T17:12:13.020Z,13.30
2018-07-22T17:14:41.762Z,15.10
2018-07-22T17:17:10.547Z,12.60
2018-07-22T17:19:39.329Z,14.87
2018-07-22T17:22:08.159Z,15.70
2018-07-22T17:24:36.847Z,12.27
2018-07-22T17:27:05.768Z,14.30
2018-07-22T17:29:34.640Z,13.17
2018-07-22T17:32:03.380Z,13.70
2018-07-22T17:34:32.000Z,13.73
2018-07-22T17:37:00.722Z,13.30
2018-07-22T17:39:29.455Z,15.43
2018-07-22T17:41:58.668Z,15.50
2018-07-22T17:44:27.523Z,13.30
2018-07-22T17:46:56.209Z,16.20
2018-07-22T17:49:24.927Z,16.23
2018-07-22T17:51:53.448Z,11.47
2018-07-22T17:54:22.278Z,16.90
2018-07-22T17:56:50.962Z,12.23
2018-07-22T17:59:20.193Z,12.70
2018-07-22T18:01:48.863Z,16.70
2018-07-22T18:04:17.993Z,14.27
2018-07-22T18:06:47.409Z,16.27
2018-07-22T18:09:16.628Z,16.90
2018-07-22T18:11:45.789Z,14.43
2018-07-22T18:14:14.877Z,16.40
2018-07-22T18:16:44.911Z,14.37
2018-07-22T18:19:13.892Z,16.67
2018-07-22T18:21:42.947Z,15.50
2018-07-22T18:24:11.916Z,16.40
2018-07-22T18:26:41.097Z,17.67
2018-07-22T18:29:10.624Z,15.93
2018-07-22T18:31:39.911Z,17.27
2018-07-22T18:34:09.126Z,14.67
2018-07-22T18:36:38.134Z,11.60
2018-07-22T18:39:12.656Z,18.50
2018-07-22T18:41:43.440Z,15.97
2018-07-22T18:44:13.407Z,16.23
2018-07-22T18:46:44.375Z,15.23
2018-07-22T18:49:16.613Z,20.80
2018-07-22T18:51:45.930Z,16.50
2018-07-22T18:54:15.037Z,21.00
2018-07-22T18:56:44.273Z,14.43
2018-07-22T18:59:13.529Z,20.20
2018-07-22T19:01:42.723Z,18.07
2018-07-22T19:04:12.226Z,14.87
2018-07-22T19:06:41.369Z,12.40
2018-07-22T19:09:11.864Z,12.53
2018-07-22T19:11:41.769Z,16.17
2018-07-22T19:14:11.188Z,17.50
2018-07-22T19:16:40.589Z,19.63
2018-07-22T19:19:09.847Z,19.13
2018-07-22T19:21:39.294Z,18.90
2018-07-22T19:24:08.570Z,16.90
2018-07-22T19:26:37.943Z,17.50
2018-07-22T19:29:07.272Z,14.37
2018-07-22T19:31:36.386Z,15.03
2018-07-22T19:34:06.059Z,15.43
2018-07-22T19:36:35.268Z,17.70
2018-07-22T19:39:06.419Z,20.67
2018-07-22T19:41:35.540Z,21.10
2018-07-22T19:44:04.858Z,19.90
2018-07-22T19:46:34.117Z,15.40
2018-07-22T19:49:03.496Z,20.90
2018-07-22T19:51:32.919Z,17.73
2018-07-22T19:54:02.094Z,17.60
2018-07-22T19:56:31.682Z,18.30
2018-07-22T19:59:00.909Z,17.37
2018-07-22T20:01:30.424Z,19.67
2018-07-22T20:03:59.526Z,19.37
2018-07-22T20:06:28.602Z,20.80
2018-07-22T20:08:58.012Z,17.80
2018-07-22T20:11:27.411Z,22.90
2018-07-22T20:13:56.598Z,23.50
2018-07-22T20:16:25.810Z,22.67
2018-07-22T20:18:54.714Z,22.60
2018-07-22T20:21:23.894Z,17.90
2018-07-22T20:23:53.162Z,22.17
2018-07-22T20:26:22.292Z,20.93
2018-07-22T20:28:51.584Z,23.47
2018-07-22T20:31:21.670Z,22.07
2018-07-22T20:33:51.618Z,22.93
2018-07-22T20:36:23.199Z,24.70
2018-07-22T20:38:52.379Z,23.37
2018-07-22T20:41:21.700Z,25.13
2018-07-22T20:43:50.586Z,22.53
2018-07-22T20:46:19.763Z,22.70
2018-07-22T20:48:49.445Z,20.23
2018-07-22T20:51:18.158Z,18.80
2018-07-22T20:53:46.899Z,29.10
2018-07-22T20:56:15.609Z,25.23
2018-07-22T20:58:44.340Z,21.60
2018-07-22T21:01:12.900Z,26.30
2018-07-22T21:03:41.705Z,26.73
2018-07-22T21:06:10.476Z,20.67
2018-07-22T21:08:39.143Z,25.80
2018-07-22T21:11:07.795Z,19.43
2018-07-22T21:13:36.501Z,20.77
2018-07-22T21:16:05.133Z,20.83
2018-07-22T21:18:33.822Z,25.90
2018-07-22T21:21:02.526Z,18.67
2018-07-22T21:23:31.140Z,17.50
2018-07-22T21:25:59.761Z,19.20
2018-07-22T21:28:28.529Z,24.63
2018-07-22T21:30:57.276Z,25.13
2018-07-22T21:33:25.864Z,17.43
2018-07-22T21:35:54.522Z,17.40
2018-07-22T21:38:23.068Z,17.90
2018-07-22T21:40:51.928Z,22.87
2018-07-22T21:43:20.520Z,18.33
2018-07-22T21:45:49.189Z,17.43
2018-07-22T21:48:18.429Z,15.30
2018-07-22T21:50:47.415Z,18.17
2018-07-22T21:53:16.236Z,18.20
2018-07-22T21:55:46.560Z,14.57
2018-07-22T21:58:15.408Z,17.80
2018-07-22T22:00:44.968Z,16.40
2018-07-22T22:03:13.705Z,19.67
2018-07-22T22:05:42.499Z,20.63
2018-07-22T22:08:11.162Z,23.83
2018-07-22T22:10:39.811Z,24.83
2018-07-22T22:13:08.661Z,18.10
2018-07-22T22:15:37.716Z,22.47
2018-07-22T22:18:06.580Z,17.63
2018-07-22T22:20:35.751Z,18.83
2018-07-22T22:23:04.514Z,17.50
2018-07-22T22:25:33.261Z,17.30
2018-07-22T22:28:02.284Z,19.30
2018-07-22T22:30:31.057Z,18.57
2018-07-22T22:32:59.738Z,16.83
2018-07-22T22:35:28.380Z,25.80
2018-07-22T22:37:57.082Z,15.90
2018-07-22T22:40:25.875Z,17.80
2018-07-22T22:42:54.571Z,20.07
2018-07-22T22:45:23.400Z,15.50
2018-07-22T22:47:52.099Z,17.20
2018-07-22T22:50:20.692Z,21.07
2018-07-22T22:52:49.286Z,15.47
2018-07-22T22:55:17.864Z,21.40
2018-07-22T22:57:51.587Z,18.33
2018-07-22T23:00:20.342Z,18.73
2018-07-22T23:02:49.246Z,14.10
2018-07-22T23:05:17.922Z,15.50
2018-07-22T23:07:46.853Z,14.20
2018-07-22T23:10:15.525Z,17.90
2018-07-22T23:12:44.135Z,25.77
2018-07-22T23:15:12.678Z,22.97
2018-07-22T23:17:41.408Z,25.23
2018-07-22T23:20:10.068Z,27.90
2018-07-22T23:22:38.650Z,19.10
2018-07-22T23:25:06.850Z,25.60
2018-07-22T23:27:35.552Z,18.07
2018-07-22T23:30:04.226Z,15.93
2018-07-22T23:32:32.975Z,19.90
2018-07-22T23:35:01.503Z,17.97
2018-07-22T23:37:30.018Z,17.47
2018-07-22T23:39:58.706Z,17.30
2018-07-22T23:42:28.373Z,17.40
2018-07-22T23:44:56.931Z,15.70
2018-07-22T23:47:25.475Z,17.53
2018-07-22T23:49:54.050Z,17.37
2018-07-22T23:52:22.576Z,18.73
2018-07-22T23:54:51.375Z,21.60
2018-07-22T23:57:20.003Z,16.70
2018-07-22T23:59:49.004Z,14.97
